Portada
METAR-TAF:

METAR-TAF

Aeropuertos :

Aeropuerto de Oporto-Francisco Sá Carneiro

Oporto, Portugal

latitud: 41-14N, longitud: 008-41W, altitud: 69 m

Observación

El informe se hizo hace 44 minutos, a las 07:30 UTC
Viento 5 kt del norte-noroeste
Temperatura 9°C
Humedad 100%
Presión 1017 hPa
Visibilidad 10 km o más
Escasas nubes a una altura de 2200 ft
Cielo nuboso a una altura de 3700 ft

METAR: LPPR 180730Z 33005KT 9999 FEW022 BKN037 09/09 Q1017

Hora: 08:14 (08:14 UTC)

Pronóstico

El informe se hizo hace 3 horas y 14 minutos, a las 05:00 UTC
Pronóstico válido del 18 a las 06 UTC al 19 a las 06 UTC
Viento 10 kt del norte
Visibilidad 10 km o más
Nubes dispersas a una altura de 1500 ft
Nubes dispersas a una altura de 3000 ft
Evolucionando progresivamente
del 19 a las 00 UTC al 19 a las 03 UTC
Viento 8 kt del este-noreste
Escasas nubes a una altura de 1500 ft

TAF: LPPR 180500Z 1806/1906 35010KT 9999 SCT015 SCT030 BECMG 1900/1903 06008KT FEW015

Observaciones y pronósticos meteorológicos de más de 4000 aeropuertos (mensajes METAR y TAF).

Los puntos amarillos y rojos representan las estaciones disponibles.

Ponga el ratón en el punto deseado para ver el nombre de la estación.

Haga clic para ver las observaciones y los pronósticos meteorológicos.

Para cambiar el mapa : haga clic en los botones verdes con una cruz de color negro para hacer un zoom, en el botón verde con un guión para alejar o en las flechas verdes para mapas adyacentes.


METAR-TAF: